createdAt,value
2023-01-12T00:01:07.922Z,6.90
2023-01-12T00:03:34.615Z,6.57
2023-01-12T00:06:01.631Z,5.73
2023-01-12T00:08:28.243Z,7.43
2023-01-12T00:10:57.673Z,14.67
2023-01-12T00:13:24.285Z,7.13
2023-01-12T00:16:09.896Z,8.90
2023-01-12T00:18:37.271Z,10.23
2023-01-12T00:21:03.984Z,9.20
2023-01-12T00:23:30.744Z,7.47
2023-01-12T00:25:57.408Z,9.27
2023-01-12T00:28:24.186Z,11.80
2023-01-12T00:30:50.928Z,10.57
2023-01-12T00:33:17.636Z,11.33
2023-01-12T00:35:44.227Z,8.27
2023-01-12T00:38:10.998Z,12.77
2023-01-12T00:40:37.695Z,8.50
2023-01-12T00:43:23.211Z,12.27
2023-01-12T00:45:52.831Z,8.27
2023-01-12T00:48:19.610Z,9.83
2023-01-12T00:50:46.648Z,10.47
2023-01-12T00:53:13.411Z,12.57
2023-01-12T00:55:40.275Z,14.50
2023-01-12T00:58:06.988Z,13.10
2023-01-12T01:00:33.633Z,9.43
2023-01-12T01:03:00.280Z,10.10
2023-01-12T01:05:26.949Z,14.37
2023-01-12T01:07:54.331Z,20.37
2023-01-12T01:10:21.017Z,15.47
2023-01-12T01:12:48.001Z,11.33
2023-01-12T01:15:14.722Z,13.17
2023-01-12T01:17:41.388Z,14.00
2023-01-12T01:20:08.390Z,11.30
2023-01-12T01:22:35.760Z,11.77
2023-01-12T01:25:02.533Z,11.40
2023-01-12T01:27:29.177Z,12.37
2023-01-12T01:29:55.812Z,11.40
2023-01-12T01:32:22.434Z,10.23
2023-01-12T01:34:49.149Z,11.03
2023-01-12T01:37:15.828Z,16.70
2023-01-12T01:39:42.529Z,11.23
2023-01-12T01:42:28.139Z,14.03
2023-01-12T01:44:56.864Z,10.93
2023-01-12T01:47:29.628Z,11.33
2023-01-12T01:49:59.520Z,12.43
2023-01-12T01:52:29.009Z,11.93
2023-01-12T01:54:57.199Z,12.67
2023-01-12T01:57:26.348Z,15.00
2023-01-12T01:59:55.225Z,11.50
2023-01-12T02:02:24.309Z,15.73
2023-01-12T02:04:51.518Z,13.50
2023-01-12T02:07:18.254Z,7.37
2023-01-12T02:09:45.325Z,7.87
2023-01-12T02:12:30.673Z,14.57
2023-01-12T02:15:16.090Z,9.80
2023-01-12T02:17:48.871Z,12.60
2023-01-12T02:20:18.311Z,11.40
2023-01-12T02:23:04.014Z,15.67
2023-01-12T02:25:36.937Z,8.60
2023-01-12T02:28:09.523Z,9.47
2023-01-12T02:30:46.437Z,7.77
2023-01-12T02:33:22.272Z,10.33
2023-01-12T02:36:01.945Z,6.00
2023-01-12T02:38:37.464Z,9.63
2023-01-12T02:41:45.797Z,8.80
2023-01-12T02:44:27.640Z,12.70
2023-01-12T02:46:55.343Z,8.93
2023-01-12T02:49:24.569Z,10.67
2023-01-12T02:51:55.940Z,8.67
2023-01-12T02:54:23.696Z,10.87
2023-01-12T02:56:54.690Z,10.47
2023-01-12T02:59:23.083Z,15.63
2023-01-12T03:01:51.304Z,7.83
2023-01-12T03:04:19.320Z,7.33
2023-01-12T03:06:58.749Z,8.07
2023-01-12T03:09:28.794Z,15.77
2023-01-12T03:11:59.199Z,12.80
2023-01-12T03:14:26.875Z,7.87
2023-01-12T03:16:55.814Z,7.93
2023-01-12T03:19:26.444Z,13.63
2023-01-12T03:21:57.685Z,7.27
2023-01-12T03:24:50.445Z,11.20
2023-01-12T03:27:20.956Z,8.77
2023-01-12T03:29:52.056Z,7.40
2023-01-12T03:32:20.105Z,8.20
2023-01-12T03:34:46.848Z,11.73
2023-01-12T03:37:25.508Z,8.00
2023-01-12T03:40:03.717Z,6.03
2023-01-12T03:42:30.319Z,11.57
2023-01-12T03:45:16.103Z,7.60
2023-01-12T03:47:43.590Z,5.00
2023-01-12T03:50:17.798Z,7.90
2023-01-12T03:52:45.516Z,8.63
2023-01-12T03:55:15.921Z,5.67
2023-01-12T03:57:44.156Z,11.07
2023-01-12T04:00:12.410Z,7.87
2023-01-12T04:02:45.141Z,8.07
2023-01-12T04:05:13.091Z,7.50
2023-01-12T04:07:39.756Z,6.13
2023-01-12T04:10:06.946Z,5.60
2023-01-12T04:12:33.682Z,8.13
2023-01-12T04:15:01.011Z,5.97
2023-01-12T04:17:29.304Z,5.90
2023-01-12T04:19:56.032Z,0.20
2023-01-12T04:22:41.568Z,0.10
2023-01-12T04:25:09.799Z,0.10
2023-01-12T04:27:36.889Z,0.10
2023-01-12T04:30:04.124Z,0.20
2023-01-12T04:32:30.845Z,0.10
2023-01-12T04:34:57.682Z,0.20
2023-01-12T04:37:24.390Z,0.20
2023-01-12T04:39:51.035Z,0.10
2023-01-12T04:42:36.221Z,0.40
2023-01-12T04:45:02.970Z,0.10
2023-01-12T04:47:29.778Z,0.10
2023-01-12T04:49:56.473Z,0.17
2023-01-12T04:52:23.681Z,0.20
2023-01-12T04:54:50.345Z,0.10
2023-01-12T04:57:16.986Z,0.10
2023-01-12T04:59:43.636Z,0.10
2023-01-12T05:02:10.345Z,0.10
2023-01-12T05:04:37.119Z,0.20
2023-01-12T05:07:04.467Z,0.10
2023-01-12T05:09:50.002Z,0.43
2023-01-12T05:12:16.857Z,0.10
2023-01-12T05:14:43.580Z,0.10
2023-01-12T05:17:10.315Z,0.10
2023-01-12T05:19:37.050Z,0.20
2023-01-12T05:22:04.409Z,4.93
2023-01-12T05:24:31.247Z,6.03
2023-01-12T05:26:58.486Z,4.07
2023-01-12T05:29:25.205Z,6.60
2023-01-12T05:31:51.873Z,0.20
2023-01-12T05:34:19.891Z,0.17
2023-01-12T05:36:47.562Z,0.20
2023-01-12T05:39:14.346Z,0.20
2023-01-12T05:42:00.982Z,3.93
2023-01-12T05:44:27.797Z,0.10
2023-01-12T05:46:54.415Z,0.10
2023-01-12T05:49:21.410Z,0.20
2023-01-12T05:51:48.071Z,0.10
2023-01-12T05:54:14.783Z,0.20
2023-01-12T05:56:41.431Z,0.20
2023-01-12T05:59:10.424Z,5.87
2023-01-12T06:01:37.333Z,0.13
2023-01-12T06:04:04.331Z,4.33
2023-01-12T06:06:31.532Z,11.13
2023-01-12T06:08:59.236Z,0.10
2023-01-12T06:11:44.509Z,0.10
2023-01-12T06:14:11.570Z,3.73
2023-01-12T06:16:39.237Z,8.30
2023-01-12T06:19:06.275Z,7.60
2023-01-12T06:21:34.027Z,8.73
2023-01-12T06:24:00.691Z,0.20
2023-01-12T06:26:27.339Z,0.20
2023-01-12T06:28:53.986Z,0.10
2023-01-12T06:31:20.696Z,0.20
2023-01-12T06:33:47.354Z,8.27
2023-01-12T06:36:14.125Z,0.10
2023-01-12T06:38:40.784Z,0.10
2023-01-12T06:41:08.806Z,0.20
2023-01-12T06:43:35.414Z,6.60
2023-01-12T06:46:02.043Z,5.50
2023-01-12T06:48:39.001Z,0.10
2023-01-12T06:51:06.258Z,0.20
2023-01-12T06:53:32.904Z,6.07
2023-01-12T06:55:59.613Z,5.67
2023-01-12T06:58:26.255Z,0.10
2023-01-12T07:00:52.899Z,8.43
2023-01-12T07:03:19.849Z,0.47
2023-01-12T07:05:46.710Z,0.20
2023-01-12T07:08:16.146Z,4.63
2023-01-12T07:10:43.220Z,6.77
2023-01-12T07:13:10.042Z,0.10
2023-01-12T07:15:37.051Z,0.10
2023-01-12T07:18:03.743Z,0.20
2023-01-12T07:20:30.492Z,6.90
2023-01-12T07:22:57.108Z,5.67
2023-01-12T07:25:25.176Z,3.80
2023-01-12T07:27:55.017Z,0.10
2023-01-12T07:30:21.957Z,0.10
2023-01-12T07:32:49.687Z,0.10
2023-01-12T07:35:17.100Z,0.10
2023-01-12T07:37:47.757Z,0.10
2023-01-12T07:40:14.393Z,0.60
2023-01-12T07:42:41.045Z,3.47
2023-01-12T07:45:07.902Z,0.20
2023-01-12T07:47:34.587Z,0.10
2023-01-12T07:50:01.296Z,0.10
2023-01-12T07:52:27.974Z,5.67
2023-01-12T07:54:54.634Z,2.33
2023-01-12T07:57:21.479Z,5.67
2023-01-12T07:59:48.130Z,1.90
2023-01-12T08:02:19.336Z,0.30
2023-01-12T08:04:46.694Z,0.10
2023-01-12T08:07:13.811Z,3.77
2023-01-12T08:09:41.734Z,2.03
2023-01-12T08:12:08.359Z,2.60
2023-01-12T08:14:38.857Z,4.13
2023-01-12T08:17:11.479Z,0.10
2023-01-12T08:19:42.830Z,0.20
2023-01-12T08:22:12.881Z,0.13
2023-01-12T08:24:42.486Z,0.20
2023-01-12T08:27:09.356Z,2.00
2023-01-12T08:29:44.104Z,4.03
2023-01-12T08:32:13.348Z,1.27
2023-01-12T08:34:42.203Z,2.50
2023-01-12T08:37:10.244Z,1.67
2023-01-12T08:39:37.145Z,4.37
2023-01-12T08:42:03.939Z,5.53
2023-01-12T08:44:36.503Z,2.10
2023-01-12T08:47:04.559Z,2.90
2023-01-12T08:49:31.828Z,2.53
2023-01-12T08:51:58.759Z,5.80
2023-01-12T08:54:25.645Z,4.10
2023-01-12T08:56:54.057Z,3.17
2023-01-12T08:59:20.876Z,3.50
2023-01-12T09:01:47.995Z,2.53
2023-01-12T09:04:14.815Z,0.20
2023-01-12T09:06:42.595Z,0.10
2023-01-12T09:09:10.509Z,0.17
2023-01-12T09:11:38.014Z,4.00
2023-01-12T09:14:04.934Z,3.67
2023-01-12T09:16:32.238Z,0.10
2023-01-12T09:18:58.910Z,0.20
2023-01-12T09:21:26.507Z,0.20
2023-01-12T09:23:53.760Z,0.23
2023-01-12T09:26:21.823Z,0.10
2023-01-12T09:28:48.960Z,0.10
2023-01-12T09:31:18.763Z,0.10
2023-01-12T09:33:46.081Z,0.10
2023-01-12T09:36:14.339Z,0.10
2023-01-12T09:38:42.246Z,0.10
2023-01-12T09:41:15.454Z,0.10
2023-01-12T09:44:01.637Z,0.20
2023-01-12T09:46:53.636Z,0.10
2023-01-12T09:49:21.975Z,0.10
2023-01-12T09:51:56.182Z,0.10
2023-01-12T09:54:22.829Z,0.10
2023-01-12T09:57:09.270Z,0.37
2023-01-12T09:59:45.146Z,0.10
2023-01-12T10:02:13.227Z,0.10
2023-01-12T10:04:40.348Z,0.10
2023-01-12T10:07:12.876Z,0.10
2023-01-12T10:09:39.964Z,0.10
2023-01-12T10:12:21.962Z,0.10
2023-01-12T10:14:52.648Z,0.10
2023-01-12T10:17:50.773Z,0.10
2023-01-12T10:20:28.501Z,1.43
2023-01-12T10:23:01.210Z,2.30
2023-01-12T10:25:35.371Z,2.37
2023-01-12T10:28:06.581Z,3.37
2023-01-12T10:30:37.870Z,6.40
2023-01-12T10:33:11.852Z,3.97
2023-01-12T10:35:49.154Z,0.20
2023-01-12T10:38:24.880Z,0.10
2023-01-12T10:41:10.016Z,0.20
2023-01-12T10:43:37.225Z,0.20
2023-01-12T10:46:06.285Z,0.10
2023-01-12T10:48:33.378Z,2.37
2023-01-12T10:51:05.382Z,2.77
2023-01-12T10:53:42.740Z,2.60
2023-01-12T10:56:13.953Z,1.33
2023-01-12T10:58:42.011Z,1.03
2023-01-12T11:01:08.809Z,3.97
2023-01-12T11:03:37.558Z,0.20
2023-01-12T11:06:23.032Z,4.33
2023-01-12T11:08:49.848Z,1.50
2023-01-12T11:11:24.983Z,3.07
2023-01-12T11:13:56.185Z,1.80
2023-01-12T11:16:25.210Z,2.70
2023-01-12T11:19:07.208Z,3.47
2023-01-12T11:21:36.845Z,2.80
2023-01-12T11:24:03.506Z,1.13
2023-01-12T11:26:43.289Z,0.87
2023-01-12T11:29:27.179Z,3.30
2023-01-12T11:31:56.268Z,3.63
2023-01-12T11:34:24.751Z,1.50
2023-01-12T11:36:54.778Z,1.40
2023-01-12T11:39:25.981Z,1.30
2023-01-12T11:42:16.435Z,2.77
2023-01-12T11:44:51.700Z,3.40
2023-01-12T11:47:22.585Z,4.43
2023-01-12T11:50:02.393Z,0.63
2023-01-12T11:52:30.286Z,2.43
2023-01-12T11:54:56.956Z,2.30
2023-01-12T11:57:32.803Z,2.40
2023-01-12T12:00:02.290Z,1.60
2023-01-12T12:02:37.701Z,1.13
2023-01-12T12:05:21.978Z,1.60
2023-01-12T12:07:57.349Z,2.00
2023-01-12T12:10:34.378Z,2.80
2023-01-12T12:13:23.133Z,0.87
2023-01-12T12:15:52.955Z,0.20
2023-01-12T12:18:35.343Z,0.10
2023-01-12T12:21:09.626Z,0.10
2023-01-12T12:23:36.846Z,0.10
2023-01-12T12:26:16.172Z,0.20
2023-01-12T12:28:42.852Z,0.20
2023-01-12T12:31:21.432Z,0.20
2023-01-12T12:33:52.643Z,0.17
2023-01-12T12:36:31.836Z,0.20
2023-01-12T12:39:15.521Z,0.27
2023-01-12T12:42:08.562Z,0.10
2023-01-12T12:44:53.834Z,35.00
2023-01-12T12:47:41.924Z,0.10
2023-01-12T12:50:16.284Z,0.10
2023-01-12T12:52:43.428Z,0.53
2023-01-12T12:55:12.456Z,0.10
2023-01-12T12:58:01.123Z,0.10
2023-01-12T13:00:29.033Z,0.20
2023-01-12T13:02:55.955Z,0.20
2023-01-12T13:05:41.249Z,0.10
2023-01-12T13:08:34.087Z,0.10
2023-01-12T13:11:01.308Z,1.27
2023-01-12T13:13:30.058Z,2.13
2023-01-12T13:16:26.316Z,1.20
2023-01-12T13:18:53.207Z,1.07
2023-01-12T13:21:51.187Z,1.33
2023-01-12T13:24:25.238Z,0.67
2023-01-12T13:26:57.832Z,1.47
2023-01-12T13:29:24.873Z,0.40
2023-01-12T13:31:52.684Z,0.60
2023-01-12T13:34:37.468Z,3.00
2023-01-12T13:37:10.155Z,0.67
2023-01-12T13:39:40.066Z,0.37
2023-01-12T13:42:30.818Z,0.57
2023-01-12T13:44:57.690Z,0.20
2023-01-12T13:47:33.089Z,0.10
2023-01-12T13:50:01.407Z,0.10
2023-01-12T13:52:33.166Z,0.10
2023-01-12T13:55:00.139Z,0.10
2023-01-12T13:57:28.797Z,0.20
2023-01-12T13:59:57.115Z,0.10
2023-01-12T14:02:24.068Z,0.10
2023-01-12T14:05:04.226Z,0.10
2023-01-12T14:07:52.939Z,0.20
2023-01-12T14:10:38.162Z,0.10
2023-01-12T14:13:13.909Z,0.10
2023-01-12T14:16:01.013Z,0.10
2023-01-12T14:18:44.363Z,0.10
2023-01-12T14:21:26.696Z,0.20
2023-01-12T14:23:54.179Z,0.13
2023-01-12T14:26:23.002Z,0.20
2023-01-12T14:28:51.199Z,0.10
2023-01-12T14:31:22.330Z,0.13
2023-01-12T14:33:51.094Z,0.10
2023-01-12T14:36:20.405Z,0.10
2023-01-12T14:38:48.191Z,0.90
2023-01-12T14:41:38.123Z,1.77
2023-01-12T14:44:23.975Z,0.57
2023-01-12T14:46:52.718Z,0.97
2023-01-12T14:49:21.145Z,0.57
2023-01-12T14:51:52.374Z,1.20
2023-01-12T14:54:19.738Z,0.17
2023-01-12T14:56:56.816Z,0.10
2023-01-12T14:59:24.780Z,0.20
2023-01-12T15:01:51.985Z,0.10
2023-01-12T15:04:20.826Z,0.10
2023-01-12T15:06:48.027Z,0.10
2023-01-12T15:09:25.536Z,0.20
2023-01-12T15:11:53.009Z,0.10
2023-01-12T15:14:21.516Z,0.10
2023-01-12T15:17:06.813Z,0.10
2023-01-12T15:19:52.066Z,0.20
2023-01-12T15:22:37.936Z,0.20
2023-01-12T15:25:30.568Z,1.50
2023-01-12T15:27:57.715Z,0.83
2023-01-12T15:30:24.377Z,2.70
2023-01-12T15:32:51.145Z,1.10
2023-01-12T15:35:21.573Z,0.67
2023-01-12T15:37:48.499Z,1.97
2023-01-12T15:40:15.232Z,1.17
2023-01-12T15:42:42.620Z,3.23
2023-01-12T15:45:26.357Z,1.07
2023-01-12T15:47:53.147Z,1.17
2023-01-12T15:50:19.845Z,1.30
2023-01-12T15:52:48.744Z,0.57
2023-01-12T15:55:18.949Z,1.60
2023-01-12T15:57:47.302Z,1.93
2023-01-12T16:00:15.027Z,1.70
2023-01-12T16:02:42.310Z,0.77
2023-01-12T16:05:10.341Z,1.10
2023-01-12T16:07:37.372Z,1.37
2023-01-12T16:10:04.666Z,1.83
2023-01-12T16:12:32.033Z,3.23
2023-01-12T16:14:58.885Z,2.30
2023-01-12T16:17:25.868Z,1.17
2023-01-12T16:19:52.845Z,0.60
2023-01-12T16:22:25.263Z,2.33
2023-01-12T16:24:52.835Z,1.57
2023-01-12T16:27:21.100Z,1.70
2023-01-12T16:29:47.902Z,1.20
2023-01-12T16:32:15.096Z,1.10
2023-01-12T16:34:41.829Z,0.50
2023-01-12T16:37:14.977Z,0.73
2023-01-12T16:39:42.068Z,1.03
2023-01-12T16:42:09.118Z,0.77
2023-01-12T16:44:37.483Z,2.40
2023-01-12T16:47:05.255Z,1.80
2023-01-12T16:49:35.927Z,0.90
2023-01-12T16:52:04.509Z,0.63
2023-01-12T16:54:31.352Z,1.87
2023-01-12T16:56:59.008Z,1.03
2023-01-12T16:59:26.969Z,5.30
2023-01-12T17:01:53.789Z,1.53
2023-01-12T17:04:20.616Z,3.40
2023-01-12T17:06:47.819Z,1.80
2023-01-12T17:09:15.104Z,1.23
2023-01-12T17:11:43.760Z,2.63
2023-01-12T17:14:24.482Z,1.93
2023-01-12T17:16:52.123Z,2.13
2023-01-12T17:19:19.572Z,2.00
2023-01-12T17:21:47.531Z,1.87
2023-01-12T17:24:18.365Z,0.93
2023-01-12T17:26:45.843Z,1.60
2023-01-12T17:29:12.881Z,1.73
2023-01-12T17:31:40.375Z,0.90
2023-01-12T17:34:07.874Z,1.33
2023-01-12T17:36:34.919Z,3.17
2023-01-12T17:39:01.835Z,2.87
2023-01-12T17:41:47.268Z,1.53
2023-01-12T17:44:14.032Z,1.87
2023-01-12T17:46:41.788Z,2.83
2023-01-12T17:49:09.188Z,1.40
2023-01-12T17:51:36.739Z,2.37
2023-01-12T17:54:04.516Z,1.23
2023-01-12T17:56:33.010Z,2.40
2023-01-12T17:59:00.170Z,0.73
2023-01-12T18:01:27.784Z,1.63
2023-01-12T18:03:54.901Z,1.30
2023-01-12T18:06:28.878Z,1.37
2023-01-12T18:08:56.910Z,0.90
2023-01-12T18:11:23.908Z,1.33
2023-01-12T18:13:50.614Z,0.87
2023-01-12T18:16:17.352Z,2.20
2023-01-12T18:18:44.280Z,1.13
2023-01-12T18:21:12.073Z,1.77
2023-01-12T18:23:43.527Z,0.60
2023-01-12T18:26:15.348Z,1.50
2023-01-12T18:28:42.155Z,3.83
2023-01-12T18:31:10.711Z,1.63
2023-01-12T18:33:37.493Z,2.40
2023-01-12T18:36:08.574Z,2.07
2023-01-12T18:38:35.999Z,1.30
2023-01-12T18:41:22.051Z,0.60
2023-01-12T18:43:52.181Z,1.97
2023-01-12T18:46:19.105Z,2.90
2023-01-12T18:48:46.330Z,1.07
2023-01-12T18:51:32.128Z,1.27
2023-01-12T18:53:59.977Z,1.87
2023-01-12T18:56:26.649Z,1.13
2023-01-12T18:58:53.484Z,1.20
2023-01-12T19:01:21.873Z,1.33
2023-01-12T19:03:48.957Z,1.90
2023-01-12T19:06:20.211Z,1.23
2023-01-12T19:09:05.718Z,2.47
2023-01-12T19:11:32.365Z,0.90
2023-01-12T19:14:17.547Z,0.60
2023-01-12T19:17:02.894Z,1.40
2023-01-12T19:19:30.437Z,0.60
2023-01-12T19:22:15.868Z,0.87
2023-01-12T19:25:01.366Z,1.03
2023-01-12T19:27:46.775Z,2.53
2023-01-12T19:30:14.015Z,1.87
2023-01-12T19:32:40.907Z,2.10
2023-01-12T19:35:11.320Z,0.90
2023-01-12T19:37:39.465Z,0.60
2023-01-12T19:40:17.674Z,1.53
2023-01-12T19:43:03.198Z,0.87
2023-01-12T19:45:29.960Z,0.67
2023-01-12T19:47:57.233Z,0.63
2023-01-12T19:50:23.947Z,0.50
2023-01-12T19:52:51.871Z,2.87
2023-01-12T19:55:18.592Z,1.40
2023-01-12T19:57:45.350Z,1.70
2023-01-12T20:00:15.204Z,0.93
2023-01-12T20:02:42.763Z,1.90
2023-01-12T20:05:13.171Z,1.93
2023-01-12T20:07:40.165Z,2.13
2023-01-12T20:10:07.373Z,2.27
2023-01-12T20:12:34.123Z,1.97
2023-01-12T20:15:00.823Z,0.60
2023-01-12T20:17:27.818Z,1.60
2023-01-12T20:19:54.457Z,0.77
2023-01-12T20:22:21.213Z,0.97
2023-01-12T20:24:48.342Z,2.67
2023-01-12T20:27:15.288Z,1.13
2023-01-12T20:29:43.175Z,1.67
2023-01-12T20:32:09.877Z,3.70
2023-01-12T20:34:36.771Z,1.83
2023-01-12T20:37:03.882Z,0.80
2023-01-12T20:39:31.086Z,0.80
2023-01-12T20:41:57.896Z,0.73
2023-01-12T20:44:24.580Z,0.87
2023-01-12T20:46:51.626Z,2.30
2023-01-12T20:49:18.384Z,1.73
2023-01-12T20:51:45.253Z,1.33
2023-01-12T20:54:11.959Z,1.50
2023-01-12T20:56:38.644Z,1.77
2023-01-12T20:59:05.979Z,0.80
2023-01-12T21:01:33.152Z,0.63
2023-01-12T21:04:00.073Z,0.20
2023-01-12T21:06:26.803Z,0.10
2023-01-12T21:08:53.947Z,0.30
2023-01-12T21:11:20.871Z,0.10
2023-01-12T21:13:48.184Z,0.10
2023-01-12T21:16:16.298Z,0.20
2023-01-12T21:18:43.289Z,0.10
2023-01-12T21:21:10.506Z,0.10
2023-01-12T21:23:37.173Z,0.20
2023-01-12T21:26:07.712Z,0.10
2023-01-12T21:28:36.448Z,0.10
2023-01-12T21:31:03.649Z,0.20
2023-01-12T21:33:30.776Z,0.10
2023-01-12T21:35:58.296Z,0.10
2023-01-12T21:38:25.802Z,0.10
2023-01-12T21:40:52.431Z,0.20
2023-01-12T21:43:19.596Z,0.20
2023-01-12T21:45:51.144Z,0.10
2023-01-12T21:48:19.259Z,0.10
2023-01-12T21:50:46.003Z,0.33
2023-01-12T21:53:14.710Z,0.50
2023-01-12T21:55:41.901Z,0.10
2023-01-12T21:58:08.637Z,0.10
2023-01-12T22:00:35.787Z,0.20
2023-01-12T22:03:02.598Z,0.10
2023-01-12T22:05:29.296Z,0.10
2023-01-12T22:07:57.789Z,0.80
2023-01-12T22:10:30.704Z,1.80
2023-01-12T22:12:58.923Z,0.50
2023-01-12T22:15:26.879Z,0.60
2023-01-12T22:17:54.599Z,0.60
2023-01-12T22:20:22.611Z,0.63
2023-01-12T22:22:49.342Z,0.70
2023-01-12T22:25:16.600Z,0.50
2023-01-12T22:27:43.493Z,1.00
2023-01-12T22:30:11.787Z,0.67
2023-01-12T22:32:38.800Z,0.70
2023-01-12T22:35:06.286Z,0.90
2023-01-12T22:37:35.084Z,0.57
2023-01-12T22:40:02.205Z,0.60
2023-01-12T22:42:47.421Z,0.50
2023-01-12T22:45:14.210Z,0.53
2023-01-12T22:47:48.051Z,0.63
2023-01-12T22:50:15.117Z,0.40
2023-01-12T22:52:41.920Z,0.50
2023-01-12T22:55:08.896Z,0.50
2023-01-12T22:57:35.645Z,0.77
2023-01-12T23:00:02.334Z,0.70
2023-01-12T23:02:48.571Z,0.47
2023-01-12T23:05:15.407Z,1.63
2023-01-12T23:07:42.191Z,0.40
2023-01-12T23:10:09.274Z,0.50
2023-01-12T23:12:35.900Z,0.10
2023-01-12T23:15:02.546Z,0.20
2023-01-12T23:17:29.167Z,0.10
2023-01-12T23:19:56.075Z,0.83
2023-01-12T23:22:22.821Z,0.10
2023-01-12T23:24:49.583Z,0.10
2023-01-12T23:27:17.089Z,0.10
2023-01-12T23:29:43.802Z,0.10
2023-01-12T23:32:10.527Z,0.10
2023-01-12T23:34:37.347Z,0.10
2023-01-12T23:37:03.998Z,0.10
2023-01-12T23:39:30.677Z,0.10
2023-01-12T23:41:57.259Z,0.10
2023-01-12T23:44:23.913Z,0.10
2023-01-12T23:46:50.608Z,0.17
2023-01-12T23:49:17.727Z,0.10
2023-01-12T23:51:44.440Z,0.13
2023-01-12T23:54:14.496Z,0.10
2023-01-12T23:56:41.095Z,0.10
2023-01-12T23:59:07.705Z,0.10
